Time;durP1;ratioP1;P1;durP2;ratioP2;P2;SDS_P1;SDS_P2;PMS_P1;PMS_P2;Temp;Humidity;BMP_temperature;BMP_pressure;BME280_temperature;BME280_humidity;BME280_pressure;Samples;Min_cycle;Max_cycle;Signal;HPM_P1;HPM_P2
2022/05/18 00:01:59;;;;;;;4.53;2.50;;;;;;;;;;5053179;28;20116;-87
2022/05/18 00:04:25;;;;;;;4.88;2.47;;;;;;;;;;5073657;28;20107;-86
2022/05/18 00:06:51;;;;;;;5.00;2.70;;;;;;;;;;5075882;28;20062;-85
2022/05/18 00:09:16;;;;;;;3.92;2.33;;;;;;;;;;5071540;28;20045;-84
2022/05/18 00:11:42;;;;;;;4.88;2.90;;;;;;;;;;5070467;28;20060;-84
2022/05/18 00:14:07;;;;;;;3.47;2.47;;;;;;;;;;5092872;28;20084;-86
2022/05/18 00:16:33;;;;;;;4.53;2.55;;;;;;;;;;5093998;28;20025;-85
2022/05/18 00:18:58;;;;;;;6.20;2.60;;;;;;;;;;5091681;28;20028;-88
2022/05/18 00:21:24;;;;;;;5.00;2.35;;;;;;;;;;5074901;28;20461;-88
2022/05/18 00:24:16;;;;;;;4.15;2.17;;;;;;;;;;5057585;28;20032;-88
2022/05/18 00:26:42;;;;;;;4.00;2.78;;;;;;;;;;5059021;28;20036;-87
2022/05/18 00:29:07;;;;;;;6.05;2.45;;;;;;;;;;5058682;28;20020;-86
2022/05/18 00:31:32;;;;;;;5.53;2.70;;;;;;;;;;5054192;28;20031;-87
2022/05/18 00:33:58;;;;;;;5.75;3.10;;;;;;;;;;5076676;28;20028;-86
2022/05/18 00:36:23;;;;;;;3.72;2.67;;;;;;;;;;5077368;28;20025;-86
2022/05/18 00:38:48;;;;;;;7.70;2.72;;;;;;;;;;5072591;28;20020;-88
2022/05/18 00:41:19;;;;;;;4.47;2.75;;;;;;;;;;5070217;28;20083;-87
2022/05/18 00:43:45;;;;;;;5.43;2.72;;;;;;;;;;5045329;28;20704;-87
2022/05/18 00:46:13;;;;;;;5.32;2.60;;;;;;;;;;5069657;28;20044;-85
2022/05/18 00:48:40;;;;;;;7.65;2.97;;;;;;;;;;5073135;28;20039;-87
2022/05/18 00:51:12;;;;;;;3.70;2.80;;;;;;;;;;5076285;28;20088;-87
2022/05/18 00:53:46;;;;;;;;;;;;;;;;;;5063157;28;20039;-88
2022/05/18 00:56:19;;;;;;;5.88;2.45;;;;;;;;;;5061284;28;19920;-88
2022/05/18 00:58:50;;;;;;;6.28;2.97;;;;;;;;;;5082406;28;20024;-87
2022/05/18 01:01:21;;;;;;;3.65;2.80;;;;;;;;;;5049197;28;20056;-86
2022/05/18 01:03:51;;;;;;;4.55;2.88;;;;;;;;;;5058308;28;20397;-86
2022/05/18 01:06:29;;;;;;;6.88;3.15;;;;;;;;;;5062970;28;20052;-87
2022/05/18 01:08:58;;;;;;;6.68;2.90;;;;;;;;;;5057378;28;20048;-86
2022/05/18 01:11:25;;;;;;;10.50;3.58;;;;;;;;;;5079788;28;20087;-86
2022/05/18 01:13:57;;;;;;;4.00;2.83;;;;;;;;;;5062531;28;20059;-85
2022/05/18 01:16:23;;;;;;;7.32;2.97;;;;;;;;;;5082321;28;20050;-88
2022/05/18 01:18:50;;;;;;;3.10;2.72;;;;;;;;;;5080993;28;20031;-87
2022/05/18 01:21:16;;;;;;;10.07;2.90;;;;;;;;;;5079793;28;20033;-86
2022/05/18 01:23:53;;;;;;;7.45;2.72;;;;;;;;;;5082390;28;20024;-86
2022/05/18 01:26:41;;;;;;;5.07;3.00;;;;;;;;;;5081719;28;20020;-87
2022/05/18 01:29:08;;;;;;;7.95;3.28;;;;;;;;;;5085705;28;20043;-88
2022/05/18 01:31:56;;;;;;;5.10;3.10;;;;;;;;;;5058264;28;20112;-87
2022/05/18 01:34:25;;;;;;;6.25;3.17;;;;;;;;;;5079081;28;20025;-87
2022/05/18 01:36:51;;;;;;;7.28;4.28;;;;;;;;;;5060468;28;20088;-85
2022/05/18 01:39:29;;;;;;;5.72;3.40;;;;;;;;;;5078622;28;20042;-85
2022/05/18 01:42:03;;;;;;;5.50;3.25;;;;;;;;;;5075634;28;20036;-86
2022/05/18 01:44:30;;;;;;;5.80;3.60;;;;;;;;;;5058779;28;20033;-87
2022/05/18 01:46:55;;;;;;;6.30;3.28;;;;;;;;;;5076867;28;20028;-86
2022/05/18 01:49:21;;;;;;;6.68;3.58;;;;;;;;;;5081554;28;20112;-86
2022/05/18 01:51:51;;;;;;;5.63;3.58;;;;;;;;;;5077317;28;20032;-87
2022/05/18 01:54:17;;;;;;;5.65;4.00;;;;;;;;;;5075316;28;20028;-88
2022/05/18 01:56:42;;;;;;;8.15;3.70;;;;;;;;;;5077093;28;20032;-87
2022/05/18 01:59:08;;;;;;;8.35;3.60;;;;;;;;;;5061350;28;20036;-87
2022/05/18 02:01:34;;;;;;;8.60;3.00;;;;;;;;;;5075885;28;20497;-87
2022/05/18 02:04:00;;;;;;;9.82;3.35;;;;;;;;;;5062138;28;20077;-85
2022/05/18 02:06:25;;;;;;;23.40;4.03;;;;;;;;;;5061399;28;20032;-85
2022/05/18 02:08:51;;;;;;;11.30;3.63;;;;;;;;;;5082458;28;20695;-86
2022/05/18 02:11:19;;;;;;;9.63;3.97;;;;;;;;;;5075210;28;20032;-86
2022/05/18 02:13:45;;;;;;;4.95;3.33;;;;;;;;;;5079348;28;20028;-88
2022/05/18 02:16:11;;;;;;;8.00;3.85;;;;;;;;;;5077791;28;20020;-87
2022/05/18 02:18:36;;;;;;;5.95;3.35;;;;;;;;;;5060986;28;20028;-85
2022/05/18 02:21:08;;;;;;;5.30;3.53;;;;;;;;;;5069702;28;20020;-85
2022/05/18 02:23:34;;;;;;;4.55;3.20;;;;;;;;;;5074439;28;20103;-88
2022/05/18 02:26:07;;;;;;;7.95;3.55;;;;;;;;;;5055475;28;20068;-85
2022/05/18 02:28:33;;;;;;;5.65;3.35;;;;;;;;;;5069583;28;20086;-86
2022/05/18 02:30:58;;;;;;;5.50;3.35;;;;;;;;;;5057495;28;20025;-88
2022/05/18 02:33:23;;;;;;;5.82;3.30;;;;;;;;;;5059442;28;20469;-87
2022/05/18 02:35:49;;;;;;;4.60;3.58;;;;;;;;;;5077169;28;20025;-86
2022/05/18 02:38:15;;;;;;;5.25;3.35;;;;;;;;;;5081762;28;20020;-87
2022/05/18 02:40:40;;;;;;;6.90;3.55;;;;;;;;;;5059355;28;20028;-86
2022/05/18 02:43:06;;;;;;;9.43;3.70;;;;;;;;;;5085246;28;20546;-84
2022/05/18 02:45:31;;;;;;;7.75;3.42;;;;;;;;;;5071133;28;20032;-87
2022/05/18 02:47:57;;;;;;;5.78;3.95;;;;;;;;;;5078329;28;20026;-86
2022/05/18 02:50:22;;;;;;;6.28;3.70;;;;;;;;;;5060982;28;20050;-87
2022/05/18 02:52:47;;;;;;;4.80;3.67;;;;;;;;;;5060189;28;20058;-87
2022/05/18 02:57:57;;;;;;;11.38;4.40;;;;;;;;;;5078269;28;20031;-86
2022/05/18 03:00:22;;;;;;;5.50;3.60;;;;;;;;;;5079440;28;20119;-88
2022/05/18 03:02:48;;;;;;;5.55;3.70;;;;;;;;;;5077592;28;20047;-87
2022/05/18 03:05:13;;;;;;;7.60;4.15;;;;;;;;;;5078736;28;20031;-87
2022/05/18 03:07:39;;;;;;;3.92;3.38;;;;;;;;;;5072503;28;20016;-86
2022/05/18 03:10:05;;;;;;;5.80;3.65;;;;;;;;;;5078427;28;20036;-87
2022/05/18 03:12:31;;;;;;;6.82;3.78;;;;;;;;;;5056024;28;20056;-88
2022/05/18 03:14:56;;;;;;;9.52;3.50;;;;;;;;;;5068159;28;20028;-87
2022/05/18 03:17:21;;;;;;;6.43;3.50;;;;;;;;;;5059198;28;20033;-87
2022/05/18 03:19:47;;;;;;;6.90;3.65;;;;;;;;;;5059283;28;20131;-87
2022/05/18 03:24:56;;;;;;;7.13;3.90;;;;;;;;;;5067646;28;20035;-88
2022/05/18 03:27:21;;;;;;;13.82;4.65;;;;;;;;;;5055917;28;20036;-89
2022/05/18 03:29:47;;;;;;;8.57;4.68;;;;;;;;;;5068970;28;20406;-88
2022/05/18 03:32:12;;;;;;;6.78;3.85;;;;;;;;;;5076321;28;20374;-86
2022/05/18 03:34:38;;;;;;;8.50;3.97;;;;;;;;;;5070574;28;20046;-86
2022/05/18 03:37:03;;;;;;;19.80;4.30;;;;;;;;;;5074263;28;20359;-86
2022/05/18 03:39:29;;;;;;;9.38;3.63;;;;;;;;;;5080632;28;20029;-86
2022/05/18 03:41:56;;;;;;;20.80;4.40;;;;;;;;;;5075477;28;20043;-87
2022/05/18 03:44:22;;;;;;;10.60;4.25;;;;;;;;;;5070264;28;20028;-87
2022/05/18 03:46:47;;;;;;;6.10;3.53;;;;;;;;;;5057499;28;20025;-88
2022/05/18 03:49:13;;;;;;;7.95;4.10;;;;;;;;;;5070368;28;20016;-87
2022/05/18 03:51:38;;;;;;;8.60;4.40;;;;;;;;;;5056495;28;20024;-87
2022/05/18 03:54:06;;;;;;;10.23;3.60;;;;;;;;;;5069737;28;20032;-85
2022/05/18 03:56:32;;;;;;;11.98;3.65;;;;;;;;;;5065049;28;20043;-85
2022/05/18 03:58:59;;;;;;;5.15;3.60;;;;;;;;;;5056359;28;20123;-87
2022/05/18 04:01:26;;;;;;;10.30;3.90;;;;;;;;;;5067025;28;20531;-87
2022/05/18 04:03:51;;;;;;;9.52;4.32;;;;;;;;;;5078044;28;20406;-87
2022/05/18 04:06:16;;;;;;;7.10;4.28;;;;;;;;;;5057287;28;20036;-86
2022/05/18 04:08:42;;;;;;;7.10;3.88;;;;;;;;;;5075732;28;20031;-86
2022/05/18 04:11:08;;;;;;;10.20;4.40;;;;;;;;;;5071076;28;20074;-86
2022/05/18 04:13:34;;;;;;;5.05;3.72;;;;;;;;;;5053933;28;20437;-87
2022/05/18 04:16:00;;;;;;;7.70;4.45;;;;;;;;;;5060105;28;20094;-85
2022/05/18 04:18:26;;;;;;;6.20;3.55;;;;;;;;;;5051847;28;20063;-87
2022/05/18 04:20:53;;;;;;;5.47;3.85;;;;;;;;;;5056369;28;20190;-85
2022/05/18 04:23:19;;;;;;;9.68;4.75;;;;;;;;;;5072801;28;20032;-87
2022/05/18 04:25:45;;;;;;;7.30;4.35;;;;;;;;;;5077880;28;20028;-87
2022/05/18 04:28:14;;;;;;;6.68;4.40;;;;;;;;;;5080007;28;20040;-87
2022/05/18 04:30:41;;;;;;;7.32;3.70;;;;;;;;;;5075642;28;20031;-86
2022/05/18 04:33:06;;;;;;;5.80;4.15;;;;;;;;;;5083371;28;20505;-86
2022/05/18 04:35:31;;;;;;;6.93;4.55;;;;;;;;;;5082811;28;20051;-86
2022/05/18 04:37:57;;;;;;;5.57;4.22;;;;;;;;;;5081600;28;20039;-87
2022/05/18 04:40:23;;;;;;;7.95;4.60;;;;;;;;;;5079427;28;20021;-87
2022/05/18 04:42:48;;;;;;;9.60;4.32;;;;;;;;;;5064312;28;20056;-87
2022/05/18 04:45:17;;;;;;;10.65;5.18;;;;;;;;;;5085115;28;20028;-88
2022/05/18 04:47:42;;;;;;;8.15;4.88;;;;;;;;;;5083691;28;20023;-88
2022/05/18 04:50:09;;;;;;;10.32;4.63;;;;;;;;;;5063701;28;20115;-85
2022/05/18 04:52:34;;;;;;;9.88;4.90;;;;;;;;;;5079156;28;20047;-88
2022/05/18 04:55:00;;;;;;;10.52;5.85;;;;;;;;;;5074974;28;20028;-89
2022/05/18 04:57:26;;;;;;;8.05;4.70;;;;;;;;;;5062139;28;20035;-87
2022/05/18 04:59:51;;;;;;;15.63;5.10;;;;;;;;;;5065362;28;20032;-86
2022/05/18 05:02:17;;;;;;;9.10;5.20;;;;;;;;;;5077712;28;20039;-86
2022/05/18 05:04:43;;;;;;;10.82;4.63;;;;;;;;;;5081151;28;20020;-86
2022/05/18 05:07:09;;;;;;;9.02;5.00;;;;;;;;;;5055464;28;20474;-85
2022/05/18 05:09:34;;;;;;;10.70;5.78;;;;;;;;;;5052518;28;20036;-84
2022/05/18 05:12:00;;;;;;;11.88;5.13;;;;;;;;;;5078792;28;20055;-86
2022/05/18 05:14:26;;;;;;;14.35;5.47;;;;;;;;;;5080825;28;20489;-83
2022/05/18 05:16:52;;;;;;;7.00;4.82;;;;;;;;;;5081562;28;20036;-86
2022/05/18 05:19:18;;;;;;;8.85;4.88;;;;;;;;;;5085707;28;20035;-85
2022/05/18 05:21:44;;;;;;;12.07;5.43;;;;;;;;;;5076882;28;20024;-86
2022/05/18 05:24:11;;;;;;;9.25;5.20;;;;;;;;;;5080756;28;20021;-85
2022/05/18 05:26:37;;;;;;;11.52;4.78;;;;;;;;;;5071103;28;20074;-87
2022/05/18 05:29:03;;;;;;;10.98;5.82;;;;;;;;;;5083189;28;20029;-86
2022/05/18 05:31:29;;;;;;;10.20;5.45;;;;;;;;;;5079030;28;20043;-87
2022/05/18 05:33:54;;;;;;;8.77;5.55;;;;;;;;;;5078666;28;20029;-87
2022/05/18 05:36:20;;;;;;;9.85;5.32;;;;;;;;;;5082418;28;20027;-85
2022/05/18 05:38:45;;;;;;;11.48;5.13;;;;;;;;;;5083713;28;20110;-84
2022/05/18 05:41:11;;;;;;;12.27;5.57;;;;;;;;;;5077389;28;20021;-84
2022/05/18 05:43:36;;;;;;;12.48;5.43;;;;;;;;;;5077367;28;20025;-84
2022/05/18 05:46:05;;;;;;;8.10;5.55;;;;;;;;;;5077669;28;20032;-85
2022/05/18 05:48:31;;;;;;;9.63;5.22;;;;;;;;;;5084916;28;20020;-86
2022/05/18 05:50:59;;;;;;;14.73;4.80;;;;;;;;;;5080143;28;20031;-86
2022/05/18 05:53:24;;;;;;;9.43;4.53;;;;;;;;;;5081692;28;20028;-85
2022/05/18 05:55:51;;;;;;;13.65;4.68;;;;;;;;;;5079534;28;20517;-86
2022/05/18 05:58:18;;;;;;;9.90;4.70;;;;;;;;;;5079084;28;20040;-85
2022/05/18 06:00:44;;;;;;;8.52;4.57;;;;;;;;;;5056100;28;20024;-86
2022/05/18 06:03:09;;;;;;;7.13;4.18;;;;;;;;;;5079987;28;20021;-85
2022/05/18 06:05:34;;;;;;;13.73;4.90;;;;;;;;;;5075514;28;20024;-86
2022/05/18 06:08:00;;;;;;;11.10;4.97;;;;;;;;;;5078699;28;20024;-86
2022/05/18 06:10:25;;;;;;;11.40;4.57;;;;;;;;;;5076143;28;20044;-87
2022/05/18 06:12:51;;;;;;;7.00;4.10;;;;;;;;;;5077346;28;20028;-85
2022/05/18 06:15:16;;;;;;;6.03;3.85;;;;;;;;;;5075768;28;20028;-86
2022/05/18 06:17:41;;;;;;;11.95;4.38;;;;;;;;;;5078916;28;20064;-86
2022/05/18 06:20:07;;;;;;;9.27;4.35;;;;;;;;;;5057937;28;20020;-83
2022/05/18 06:22:33;;;;;;;9.13;4.65;;;;;;;;;;5078862;28;20031;-86
2022/05/18 06:24:58;;;;;;;7.60;4.68;;;;;;;;;;5064027;28;20036;-86
2022/05/18 06:27:24;;;;;;;11.15;4.65;;;;;;;;;;5069843;28;20025;-86
2022/05/18 06:29:49;;;;;;;11.48;5.20;;;;;;;;;;5071174;28;20227;-86
2022/05/18 06:32:16;;;;;;;13.07;5.53;;;;;;;;;;5072291;28;20029;-85
2022/05/18 06:34:44;;;;;;;9.23;4.20;;;;;;;;;;5072092;28;20024;-86
2022/05/18 06:37:11;;;;;;;7.15;4.30;;;;;;;;;;5076994;28;20024;-86
2022/05/18 06:39:36;;;;;;;6.95;4.60;;;;;;;;;;5076367;28;20084;-87
2022/05/18 06:42:01;;;;;;;9.32;4.20;;;;;;;;;;5072683;28;20434;-84
2022/05/18 06:44:27;;;;;;;11.63;4.55;;;;;;;;;;5072657;28;20041;-84
2022/05/18 06:46:52;;;;;;;8.85;4.13;;;;;;;;;;5070937;28;20439;-86
2022/05/18 06:49:19;;;;;;;9.80;4.35;;;;;;;;;;5076548;28;20023;-86
2022/05/18 06:51:46;;;;;;;8.52;4.30;;;;;;;;;;5069995;28;20024;-87
2022/05/18 06:54:13;;;;;;;10.88;3.97;;;;;;;;;;5073521;28;20687;-87
2022/05/18 06:56:41;;;;;;;12.20;3.60;;;;;;;;;;5074587;28;20031;-83
2022/05/18 06:59:07;;;;;;;5.65;3.33;;;;;;;;;;5071995;28;20381;-87
2022/05/18 07:01:33;;;;;;;7.65;3.85;;;;;;;;;;5070615;28;20027;-89
2022/05/18 07:03:59;;;;;;;7.60;3.40;;;;;;;;;;5052972;28;20068;-86
2022/05/18 07:06:28;;;;;;;7.97;3.22;;;;;;;;;;5053705;28;20032;-86
2022/05/18 07:08:55;;;;;;;8.88;3.38;;;;;;;;;;5053746;28;20106;-88
2022/05/18 07:11:22;;;;;;;10.75;3.45;;;;;;;;;;5064089;28;20020;-87
2022/05/18 07:13:51;;;;;;;6.88;3.10;;;;;;;;;;5066478;28;20508;-86
2022/05/18 07:16:18;;;;;;;9.98;3.28;;;;;;;;;;5065042;28;20906;-87
2022/05/18 07:18:44;;;;;;;6.97;3.00;;;;;;;;;;5053594;28;20218;-88
2022/05/18 07:21:11;;;;;;;5.15;3.15;;;;;;;;;;5049499;28;20115;-88
2022/05/18 07:23:36;;;;;;;8.50;2.90;;;;;;;;;;5074936;28;20032;-86
2022/05/18 07:26:03;;;;;;;6.47;3.03;;;;;;;;;;5044398;28;20036;-88
2022/05/18 07:28:29;;;;;;;5.28;2.92;;;;;;;;;;5048215;28;20448;-87
2022/05/18 07:30:54;;;;;;;6.03;2.67;;;;;;;;;;5048422;28;20024;-87
2022/05/18 07:33:21;;;;;;;3.55;2.53;;;;;;;;;;5049949;28;20028;-86
2022/05/18 07:35:47;;;;;;;6.05;2.95;;;;;;;;;;5051579;28;20086;-86
2022/05/18 07:38:13;;;;;;;8.98;3.20;;;;;;;;;;5052024;28;20020;-87
2022/05/18 07:40:39;;;;;;;5.72;2.58;;;;;;;;;;5068822;28;20032;-87
2022/05/18 07:43:04;;;;;;;7.18;2.58;;;;;;;;;;5053259;28;20035;-87
2022/05/18 07:45:31;;;;;;;4.72;2.40;;;;;;;;;;5055256;28;20028;-87
2022/05/18 07:47:56;;;;;;;6.10;2.60;;;;;;;;;;5070442;28;20024;-87
2022/05/18 07:50:24;;;;;;;4.05;2.17;;;;;;;;;;5069757;28;20073;-88
2022/05/18 07:52:51;;;;;;;6.93;2.38;;;;;;;;;;5071093;28;20043;-86
2022/05/18 07:55:17;;;;;;;7.03;2.40;;;;;;;;;;5049623;28;20378;-87
2022/05/18 07:57:43;;;;;;;3.67;2.20;;;;;;;;;;5071498;28;20024;-87
2022/05/18 08:00:10;;;;;;;4.50;2.30;;;;;;;;;;5068715;28;20412;-86
2022/05/18 08:02:36;;;;;;;6.05;2.10;;;;;;;;;;5069446;28;20029;-88
2022/05/18 08:05:02;;;;;;;12.10;2.42;;;;;;;;;;5071232;28;20391;-87
2022/05/18 08:07:27;;;;;;;6.75;2.42;;;;;;;;;;5067835;28;20103;-87
2022/05/18 08:15:21;;;;;;;3.75;2.22;;;;;;;;;;5064671;28;20534;-87
2022/05/18 08:17:47;;;;;;;3.42;2.00;;;;;;;;;;5053257;28;20111;-86
2022/05/18 08:20:15;;;;;;;5.90;2.15;;;;;;;;;;5074741;28;20025;-87
2022/05/18 08:22:41;;;;;;;6.43;2.08;;;;;;;;;;5073512;28;20077;-86
2022/05/18 08:25:08;;;;;;;3.45;1.80;;;;;;;;;;5057293;28;20030;-86
2022/05/18 08:27:34;;;;;;;3.35;1.90;;;;;;;;;;5075083;28;20040;-87
2022/05/18 08:30:05;;;;;;;6.25;2.63;;;;;;;;;;5069727;28;20114;-85
2022/05/18 08:32:31;;;;;;;3.83;2.00;;;;;;;;;;5072341;28;20044;-86
2022/05/18 08:34:56;;;;;;;4.32;2.00;;;;;;;;;;5055534;28;20028;-88
2022/05/18 08:37:25;;;;;;;4.00;2.20;;;;;;;;;;5072756;28;20031;-87
2022/05/18 08:39:51;;;;;;;4.25;2.20;;;;;;;;;;5077252;28;20048;-86
2022/05/18 08:42:19;;;;;;;9.57;2.22;;;;;;;;;;5071483;28;20028;-86
2022/05/18 08:44:45;;;;;;;4.55;2.83;;;;;;;;;;5071947;28;20091;-87
2022/05/18 08:47:27;;;;;;;5.32;2.25;;;;;;;;;;5056150;28;20082;-87
2022/05/18 08:49:55;;;;;;;7.68;2.55;;;;;;;;;;5048442;28;20099;-87
2022/05/18 08:52:58;;;;;;;4.07;2.63;;;;;;;;;;5071069;28;20113;-87
2022/05/18 08:55:51;;;;;;;3.22;2.13;;;;;;;;;;5056006;28;20086;-86
2022/05/18 08:58:49;;;;;;;4.63;2.38;;;;;;;;;;5071646;28;20020;-86
2022/05/18 09:01:35;;;;;;;4.78;2.42;;;;;;;;;;5041988;28;20046;-85
2022/05/18 09:04:26;;;;;;;6.05;2.45;;;;;;;;;;5065225;28;20028;-87
2022/05/18 09:06:59;;;;;;;4.43;2.00;;;;;;;;;;5047082;28;20035;-86
2022/05/18 09:12:42;;;;;;;6.22;2.50;;;;;;;;;;5072268;28;20031;-87
2022/05/18 09:15:09;;;;;;;;;;;;;;;;;;5057851;28;20052;-87
2022/05/18 09:17:54;;;;;;;5.45;2.28;;;;;;;;;;5074848;28;19990;-86
2022/05/18 09:20:38;;;;;;;2.63;2.20;;;;;;;;;;5054191;28;20043;-86
2022/05/18 09:23:22;;;;;;;4.70;2.10;;;;;;;;;;5068749;28;20024;-85
2022/05/18 09:26:08;;;;;;;3.85;2.28;;;;;;;;;;5056960;28;20028;-85
2022/05/18 09:29:01;;;;;;;4.22;1.98;;;;;;;;;;5075015;28;20075;-87
2022/05/18 09:31:29;;;;;;;4.45;2.00;;;;;;;;;;5040229;28;20558;-86
2022/05/18 09:34:20;;;;;;;5.45;2.60;;;;;;;;;;5053701;28;20036;-87
2022/05/18 09:37:26;;;;;;;3.92;2.00;;;;;;;;;;5029472;28;20036;-87
2022/05/18 09:40:18;;;;;;;4.68;2.10;;;;;;;;;;5052634;28;20033;-85
2022/05/18 09:42:50;;;;;;;3.20;2.22;;;;;;;;;;5060466;28;20044;-87
2022/05/18 09:45:22;;;;;;;7.65;2.88;;;;;;;;;;5078993;28;20028;-87
2022/05/18 09:47:57;;;;;;;;;;;;;;;;;;5072221;28;20024;-86
2022/05/18 09:50:22;;;;;;;2.33;1.85;;;;;;;;;;5074281;28;19920;-87
2022/05/18 09:52:48;;;;;;;7.00;2.10;;;;;;;;;;5076700;28;20438;-87
2022/05/18 09:55:18;;;;;;;5.32;2.20;;;;;;;;;;5059892;28;20029;-87
2022/05/18 09:57:53;;;;;;;5.15;2.40;;;;;;;;;;5065197;28;20036;-87
2022/05/18 10:15:22;;;;;;;3.35;2.10;;;;;;;;;;4966664;28;20046;-86
2022/05/18 10:18:30;;;;;;;3.88;2.05;;;;;;;;;;4932341;29;20122;-86
2022/05/18 10:28:43;;;;;;;4.30;2.05;;;;;;;;;;4859275;29;20144;-87
2022/05/18 11:14:11;;;;;;;2.40;1.48;;;;;;;;;;4870903;29;20423;-86
2022/05/18 11:16:50;;;;;;;;;;;;;;;;;;4966026;28;20030;-85
2022/05/18 11:19:36;;;;;;;2.97;1.70;;;;;;;;;;5057671;28;20011;-86
2022/05/18 11:22:12;;;;;;;4.30;1.65;;;;;;;;;;5081786;28;20509;-86
2022/05/18 11:24:56;;;;;;;11.65;1.92;;;;;;;;;;5063317;28;20021;-87
2022/05/18 11:27:38;;;;;;;4.93;1.88;;;;;;;;;;5080251;28;20431;-87
2022/05/18 11:30:11;;;;;;;6.30;1.58;;;;;;;;;;5053324;28;20023;-85
2022/05/18 11:32:51;;;;;;;5.38;1.58;;;;;;;;;;5072235;28;20300;-86
2022/05/18 11:35:32;;;;;;;2.03;1.50;;;;;;;;;;5056826;28;20066;-86
2022/05/18 11:38:23;;;;;;;2.58;1.60;;;;;;;;;;5077905;28;20086;-87
2022/05/18 11:41:16;;;;;;;2.07;1.57;;;;;;;;;;5071191;28;20402;-86
2022/05/18 11:44:05;;;;;;;1.33;1.23;;;;;;;;;;5071473;28;20031;-86
2022/05/18 11:46:39;;;;;;;3.72;1.83;;;;;;;;;;5080887;28;20103;-85
2022/05/18 11:49:29;;;;;;;3.42;1.70;;;;;;;;;;5063265;28;20024;-86
2022/05/18 11:52:40;;;;;;;2.38;1.50;;;;;;;;;;5065674;28;20028;-86
2022/05/18 11:55:20;;;;;;;2.83;1.60;;;;;;;;;;5050375;28;20389;-86
2022/05/18 11:58:25;;;;;;;2.35;1.83;;;;;;;;;;5073886;28;20020;-87
2022/05/18 12:00:56;;;;;;;1.73;1.50;;;;;;;;;;5058406;28;20035;-87
2022/05/18 12:03:34;;;;;;;1.90;1.52;;;;;;;;;;5083450;28;20389;-86
2022/05/18 12:06:23;;;;;;;2.72;1.70;;;;;;;;;;5055454;28;20031;-86
2022/05/18 12:09:10;;;;;;;3.00;1.65;;;;;;;;;;5072380;28;20028;-85
2022/05/18 12:11:47;;;;;;;5.97;1.45;;;;;;;;;;5088938;28;20025;-87
2022/05/18 12:14:31;;;;;;;6.13;1.50;;;;;;;;;;5074306;28;20027;-87
2022/05/18 12:17:03;;;;;;;3.10;1.50;;;;;;;;;;5074326;28;20084;-87
2022/05/18 12:19:37;;;;;;;2.70;1.55;;;;;;;;;;5073414;28;20032;-86
2022/05/18 12:22:12;;;;;;;3.92;1.58;;;;;;;;;;5055164;28;20037;-86
2022/05/18 12:24:41;;;;;;;3.13;1.75;;;;;;;;;;5055718;28;20124;-87
2022/05/18 12:27:09;;;;;;;3.33;1.77;;;;;;;;;;5074275;28;20101;-87
2022/05/18 12:29:35;;;;;;;2.50;1.60;;;;;;;;;;5072975;28;20359;-87
2022/05/18 12:32:01;;;;;;;3.92;1.73;;;;;;;;;;5076706;28;20027;-87
2022/05/18 12:34:36;;;;;;;2.17;1.60;;;;;;;;;;5088014;28;20037;-88
2022/05/18 12:37:07;;;;;;;1.90;1.63;;;;;;;;;;5076133;28;20028;-88
2022/05/18 12:39:41;;;;;;;5.15;1.65;;;;;;;;;;5075298;28;20119;-86
2022/05/18 12:42:10;;;;;;;4.05;2.10;;;;;;;;;;5056651;28;20028;-86
2022/05/18 12:44:45;;;;;;;2.97;1.27;;;;;;;;;;5073243;28;20020;-87
2022/05/18 12:47:27;;;;;;;2.85;1.50;;;;;;;;;;5075584;28;20020;-86
2022/05/18 12:50:11;;;;;;;2.80;1.73;;;;;;;;;;5077981;28;20024;-86
2022/05/18 12:52:36;;;;;;;3.47;1.70;;;;;;;;;;5067150;28;20116;-88
2022/05/18 12:55:30;;;;;;;3.28;1.75;;;;;;;;;;5080411;28;20067;-85
2022/05/18 12:58:24;;;;;;;2.83;1.55;;;;;;;;;;5053788;28;20040;-86
2022/05/18 13:24:38;;;;;;;;;;;;;;;;;;4995165;28;20078;-86
2022/05/18 13:27:11;;;;;;;2.50;1.40;;;;;;;;;;4998996;28;20294;-86
2022/05/18 13:29:37;;;;;;;1.77;1.63;;;;;;;;;;5062668;28;20668;-86
2022/05/18 13:32:07;;;;;;;5.10;1.85;;;;;;;;;;5078231;28;20028;-86
2022/05/18 13:34:43;;;;;;;2.90;1.40;;;;;;;;;;5086773;28;20403;-86
2022/05/18 13:37:09;;;;;;;3.03;1.58;;;;;;;;;;5080237;28;20021;-86
2022/05/18 13:39:44;;;;;;;3.80;1.60;;;;;;;;;;5079202;28;20051;-85
2022/05/18 13:42:14;;;;;;;3.33;1.33;;;;;;;;;;5055969;28;20071;-86
2022/05/18 13:44:41;;;;;;;3.85;1.80;;;;;;;;;;5091756;28;20034;-84
2022/05/18 13:47:11;;;;;;;3.60;1.60;;;;;;;;;;5065101;28;20390;-84
2022/05/18 13:49:40;;;;;;;2.75;1.77;;;;;;;;;;5084934;28;20099;-84
2022/05/18 13:52:23;;;;;;;1.83;1.48;;;;;;;;;;5060135;28;20106;-83
2022/05/18 13:54:53;;;;;;;2.63;1.40;;;;;;;;;;5076717;28;20036;-86
2022/05/18 13:57:20;;;;;;;3.03;1.73;;;;;;;;;;5075204;28;20024;-84
2022/05/18 13:59:59;;;;;;;1.67;1.52;;;;;;;;;;5076377;28;20355;-84
2022/05/18 14:02:34;;;;;;;1.83;1.50;;;;;;;;;;5061578;28;20029;-85
2022/05/18 14:05:09;;;;;;;7.03;1.75;;;;;;;;;;5081321;28;20544;-84
2022/05/18 14:07:40;;;;;;;3.47;1.73;;;;;;;;;;5074952;28;20024;-83
2022/05/18 14:10:08;;;;;;;3.47;1.50;;;;;;;;;;5094581;28;20016;-88
2022/05/18 14:12:33;;;;;;;2.22;1.30;;;;;;;;;;5080564;28;20032;-84
2022/05/18 14:14:59;;;;;;;2.20;1.50;;;;;;;;;;5065232;28;20082;-84
2022/05/18 14:17:30;;;;;;;4.38;1.55;;;;;;;;;;5081036;28;20039;-85
2022/05/18 14:20:03;;;;;;;2.42;1.40;;;;;;;;;;5080697;28;20322;-85
2022/05/18 14:22:31;;;;;;;3.17;1.60;;;;;;;;;;5074925;28;20086;-85
2022/05/18 14:25:07;;;;;;;1.60;1.50;;;;;;;;;;5081185;28;20031;-84
2022/05/18 14:28:28;;;;;;;4.53;1.40;;;;;;;;;;5077880;28;20722;-86
2022/05/18 14:30:55;;;;;;;;;;;;;;;;;;5075425;28;20032;-86
2022/05/18 14:33:27;;;;;;;3.75;1.83;;;;;;;;;;5064169;28;19909;-85
2022/05/18 14:35:53;;;;;;;1.55;1.45;;;;;;;;;;5078386;28;20032;-87
2022/05/18 14:38:43;;;;;;;2.50;1.60;;;;;;;;;;5069207;28;20025;-86
2022/05/18 14:41:11;;;;;;;4.18;1.60;;;;;;;;;;5064662;28;20432;-86
2022/05/18 14:43:37;;;;;;;3.33;1.63;;;;;;;;;;5081060;28;20024;-87
2022/05/18 14:46:09;;;;;;;3.05;1.45;;;;;;;;;;5078928;28;20600;-86
2022/05/18 14:48:44;;;;;;;2.63;1.52;;;;;;;;;;5075279;28;20027;-87
2022/05/18 14:51:33;;;;;;;2.00;1.50;;;;;;;;;;5082056;28;20044;-86
2022/05/18 14:54:04;;;;;;;1.75;1.27;;;;;;;;;;5045296;28;20048;-86
2022/05/18 14:56:38;;;;;;;5.57;1.33;;;;;;;;;;5060531;28;20025;-88
2022/05/18 14:59:09;;;;;;;1.88;1.40;;;;;;;;;;5060072;28;20252;-87
2022/05/18 15:01:54;;;;;;;2.58;1.27;;;;;;;;;;5062311;28;20032;-86
2022/05/18 15:04:34;;;;;;;1.98;1.38;;;;;;;;;;5079850;28;20157;-86
2022/05/18 15:07:39;;;;;;;2.00;1.40;;;;;;;;;;5066996;28;20060;-85
2022/05/18 15:10:35;;;;;;;1.90;1.40;;;;;;;;;;5033723;28;20032;-86
2022/05/18 15:13:09;;;;;;;5.00;1.33;;;;;;;;;;5079984;28;20078;-87
2022/05/18 15:15:42;;;;;;;2.03;1.40;;;;;;;;;;5077187;28;20032;-85
2022/05/18 15:18:29;;;;;;;1.88;1.33;;;;;;;;;;5075537;28;20024;-86
2022/05/18 15:21:04;;;;;;;4.22;1.42;;;;;;;;;;5072215;28;20459;-85
2022/05/18 15:23:44;;;;;;;5.38;1.55;;;;;;;;;;5077416;28;20442;-85
2022/05/18 15:26:21;;;;;;;2.10;1.45;;;;;;;;;;5055019;28;20084;-84
2022/05/18 15:28:58;;;;;;;2.85;1.40;;;;;;;;;;5055490;28;20036;-85
2022/05/18 15:31:29;;;;;;;2.22;1.40;;;;;;;;;;5073495;28;20029;-84
2022/05/18 15:34:00;;;;;;;3.28;1.80;;;;;;;;;;5080675;28;20042;-85
2022/05/18 15:36:26;;;;;;;;;;;;;;;;;;5064671;28;20031;-84
2022/05/18 15:38:55;;;;;;;3.83;1.60;;;;;;;;;;5081891;28;19913;-84
2022/05/18 15:41:21;;;;;;;3.38;1.60;;;;;;;;;;5081030;28;20024;-84
2022/05/18 15:43:47;;;;;;;5.70;1.60;;;;;;;;;;5080797;28;20717;-86
2022/05/18 15:46:16;;;;;;;1.52;1.38;;;;;;;;;;5063046;28;20032;-85
2022/05/18 15:48:45;;;;;;;2.33;1.70;;;;;;;;;;5054901;28;20500;-84
2022/05/18 15:51:12;;;;;;;2.38;1.70;;;;;;;;;;5075043;28;20040;-85
2022/05/18 15:53:44;;;;;;;2.78;1.63;;;;;;;;;;5081647;28;20108;-86
2022/05/18 15:56:23;;;;;;;2.40;1.70;;;;;;;;;;5075689;28;20025;-85
2022/05/18 15:58:49;;;;;;;2.90;1.35;;;;;;;;;;5053707;28;20065;-85
2022/05/18 16:01:14;;;;;;;1.80;1.60;;;;;;;;;;5057411;28;20455;-85
2022/05/18 16:03:39;;;;;;;2.78;1.60;;;;;;;;;;5080777;28;20040;-86
2022/05/18 16:06:05;;;;;;;2.88;2.00;;;;;;;;;;5077931;28;20458;-86
2022/05/18 16:08:31;;;;;;;3.13;1.42;;;;;;;;;;5081370;28;20025;-87
2022/05/18 16:10:57;;;;;;;4.15;1.85;;;;;;;;;;5071586;28;20390;-85
2022/05/18 16:13:31;;;;;;;2.35;1.65;;;;;;;;;;5059596;28;20481;-85
2022/05/18 16:15:56;;;;;;;3.47;1.65;;;;;;;;;;5078870;28;20056;-86
2022/05/18 16:18:25;;;;;;;2.42;1.63;;;;;;;;;;5055764;28;20417;-87
2022/05/18 16:20:52;;;;;;;3.80;1.70;;;;;;;;;;5069449;28;20064;-87
2022/05/18 16:23:19;;;;;;;4.60;2.08;;;;;;;;;;5063157;28;20036;-87
2022/05/18 16:25:46;;;;;;;3.33;1.83;;;;;;;;;;5082171;28;20028;-87
2022/05/18 16:28:15;;;;;;;4.35;2.10;;;;;;;;;;5083307;28;20024;-87
2022/05/18 16:30:41;;;;;;;2.83;1.75;;;;;;;;;;5056276;28;20044;-88
2022/05/18 16:33:07;;;;;;;2.33;1.85;;;;;;;;;;5062513;28;20026;-88
2022/05/18 16:35:33;;;;;;;5.60;1.65;;;;;;;;;;5065008;28;20028;-83
2022/05/18 16:37:59;;;;;;;2.50;1.73;;;;;;;;;;5093423;28;20016;-87
2022/05/18 16:40:24;;;;;;;2.30;1.67;;;;;;;;;;5090780;28;20096;-88
2022/05/18 16:42:50;;;;;;;2.88;1.90;;;;;;;;;;5082862;28;20024;-86
2022/05/18 16:45:22;;;;;;;2.63;1.73;;;;;;;;;;5073294;28;20084;-87
2022/05/18 16:47:48;;;;;;;4.45;1.80;;;;;;;;;;5076565;28;20016;-86